Time;durP1;ratioP1;P1;durP2;ratioP2;P2;SDS_P1;SDS_P2;PMS_P1;PMS_P2;Temp;Humidity;BMP_temperature;BMP_pressure;BME280_temperature;BME280_humidity;BME280_pressure;Samples;Min_cycle;Max_cycle;Signal;HPM_P1;HPM_P2
2021/05/10 00:02:02;;;;;;;4.00;1.70;;;;;;;18.94;45.83;99953.66;5052858;28;20204;-68
2021/05/10 00:04:28;;;;;;;1.70;1.40;;;;;;;18.87;46.28;99947.16;5047991;28;20200;-68
2021/05/10 00:06:53;;;;;;;3.77;1.80;;;;;;;18.90;45.64;99949.56;5041515;28;20231;-68
2021/05/10 00:09:18;;;;;;;2.90;1.67;;;;;;;18.91;45.90;99948.56;5053916;28;20585;-68
2021/05/10 00:11:44;;;;;;;2.70;1.70;;;;;;;18.97;45.57;99952.50;5048711;28;20187;-69
2021/05/10 00:14:09;;;;;;;7.03;2.10;;;;;;;18.95;45.82;99949.09;5041827;28;20176;-68
2021/05/10 00:16:34;;;;;;;3.53;1.60;;;;;;;18.86;45.85;99955.44;5040255;28;20242;-69
2021/05/10 00:19:00;;;;;;;6.73;1.90;;;;;;;18.77;45.96;99959.94;5042090;28;20198;-68
2021/05/10 00:21:26;;;;;;;5.90;2.03;;;;;;;18.75;46.18;99959.22;5042167;28;20231;-68
2021/05/10 00:23:51;;;;;;;7.43;2.00;;;;;;;18.69;46.41;99941.78;5038266;28;20181;-68
2021/05/10 00:26:17;;;;;;;3.23;1.73;;;;;;;18.64;46.74;99948.66;5035929;28;20199;-67
2021/05/10 00:28:42;;;;;;;3.77;1.60;;;;;;;18.61;46.68;99951.66;5035822;28;20286;-68
2021/05/10 00:31:07;;;;;;;6.27;1.73;;;;;;;18.54;46.73;99940.56;5035492;28;20667;-67
2021/05/10 00:33:33;;;;;;;2.40;2.00;;;;;;;18.47;47.15;99946.75;5017827;28;20224;-67
2021/05/10 00:35:58;;;;;;;2.60;1.53;;;;;;;18.60;46.69;99944.53;5035041;28;20215;-67
2021/05/10 00:38:23;;;;;;;3.43;2.03;;;;;;;18.50;46.90;99939.19;5033427;28;20176;-67
2021/05/10 00:40:49;;;;;;;3.17;1.80;;;;;;;18.46;47.18;99954.00;5034951;28;20216;-68
2021/05/10 00:43:14;;;;;;;2.23;1.80;;;;;;;18.35;47.60;99952.38;5035146;28;20176;-68
2021/05/10 00:45:39;;;;;;;3.30;1.87;;;;;;;18.38;47.00;99951.22;5034969;28;20714;-68
2021/05/10 00:48:05;;;;;;;3.33;1.53;;;;;;;18.44;47.17;99959.56;5034827;28;20263;-68
2021/05/10 00:50:30;;;;;;;4.50;1.90;;;;;;;18.26;47.80;99957.84;5033187;28;20644;-68
2021/05/10 00:52:55;;;;;;;4.93;2.03;;;;;;;18.24;47.86;99968.81;5034613;28;20171;-68
2021/05/10 00:55:21;;;;;;;2.63;1.60;;;;;;;18.25;48.00;99962.41;5034739;28;20199;-68
2021/05/10 00:57:52;;;;;;;2.37;1.63;;;;;;;18.18;47.74;99957.72;5033137;28;20203;-68
2021/05/10 01:00:20;;;;;;;1.73;1.60;;;;;;;18.27;47.58;99964.94;5033182;28;20188;-68
2021/05/10 01:02:45;;;;;;;3.73;1.70;;;;;;;18.22;47.62;99959.16;5034574;28;20211;-68
2021/05/10 01:05:11;;;;;;;3.40;1.83;;;;;;;18.12;47.78;99956.50;5033724;28;20267;-68
2021/05/10 01:07:37;;;;;;;3.73;1.87;;;;;;;18.10;48.32;99964.75;5033601;28;20180;-68
2021/05/10 01:10:06;;;;;;;4.73;1.70;;;;;;;18.10;48.12;99970.13;5016796;28;20175;-68
2021/05/10 01:12:32;;;;;;;2.37;1.70;;;;;;;18.17;47.77;99954.19;5033194;28;20183;-68
2021/05/10 01:14:57;;;;;;;3.00;1.60;;;;;;;18.11;48.03;99954.78;5033478;28;20625;-68
2021/05/10 01:17:22;;;;;;;5.53;1.67;;;;;;;18.06;48.13;99952.53;5033044;28;20207;-68
2021/05/10 01:19:48;;;;;;;3.83;1.90;;;;;;;18.00;48.35;99949.59;5032857;28;20579;-68
2021/05/10 01:22:15;;;;;;;2.23;1.57;;;;;;;17.91;48.22;99956.75;5033749;28;20188;-68
2021/05/10 01:24:40;;;;;;;3.00;1.90;;;;;;;17.91;48.77;99942.41;5034011;28;20739;-68
2021/05/10 01:27:05;;;;;;;6.17;1.93;;;;;;;17.94;48.49;99948.34;5032832;28;20251;-68
2021/05/10 01:29:31;;;;;;;2.50;1.87;;;;;;;17.84;49.15;99947.56;5032422;28;20541;-68
2021/05/10 01:31:56;;;;;;;4.87;1.80;;;;;;;17.81;49.10;99943.28;5033289;28;20616;-68
2021/05/10 01:34:21;;;;;;;4.07;1.97;;;;;;;17.90;48.56;99946.09;5032399;28;20746;-68
2021/05/10 01:36:46;;;;;;;3.67;2.10;;;;;;;17.72;49.20;99944.19;5033758;28;20160;-68
2021/05/10 01:39:12;;;;;;;3.10;1.70;;;;;;;17.81;49.09;99939.72;5033866;28;20183;-68
2021/05/10 01:41:37;;;;;;;10.50;1.83;;;;;;;17.77;48.98;99943.72;5032360;28;20200;-68
2021/05/10 01:44:03;;;;;;;3.20;1.70;;;;;;;17.77;49.04;99933.78;5033685;28;20579;-67
2021/05/10 01:46:28;;;;;;;2.63;1.90;;;;;;;17.74;49.05;99944.88;5032260;28;20203;-68
2021/05/10 01:48:54;;;;;;;2.00;1.53;;;;;;;17.74;48.90;99942.19;5031949;28;20184;-68
2021/05/10 01:51:24;;;;;;;3.47;1.70;;;;;;;17.63;49.24;99939.63;5033376;28;20174;-67
2021/05/10 01:53:49;;;;;;;4.23;2.00;;;;;;;17.62;49.28;99932.53;5032118;28;20184;-68
2021/05/10 01:56:15;;;;;;;3.87;1.70;;;;;;;17.59;49.45;99946.34;5032189;28;20195;-68
2021/05/10 01:58:40;;;;;;;2.83;2.13;;;;;;;17.50;49.82;99944.53;5033462;28;20199;-68
2021/05/10 02:01:05;;;;;;;4.13;1.97;;;;;;;17.53;49.27;99941.53;5033624;28;20529;-68
2021/05/10 02:03:30;;;;;;;3.30;1.80;;;;;;;17.52;49.58;99957.88;5033764;28;20179;-68
2021/05/10 02:05:56;;;;;;;4.57;2.00;;;;;;;17.42;49.47;99945.22;5032939;28;20192;-68
2021/05/10 02:08:21;;;;;;;2.77;1.77;;;;;;;17.38;49.98;99946.53;5032163;28;20622;-68
2021/05/10 02:10:48;;;;;;;4.27;1.57;;;;;;;17.36;49.73;99937.72;5015742;28;20206;-68
2021/05/10 02:13:17;;;;;;;2.03;1.60;;;;;;;17.28;49.97;99951.09;5034096;28;20179;-68
2021/05/10 02:15:52;;;;;;;3.47;1.80;;;;;;;17.25;50.07;99951.38;5031681;28;20246;-68
2021/05/10 02:18:19;;;;;;;3.10;1.63;;;;;;;17.30;49.93;99937.47;5032354;28;20175;-68
2021/05/10 02:20:45;;;;;;;3.43;1.87;;;;;;;17.30;49.87;99937.47;5032903;28;20648;-68
2021/05/10 02:23:18;;;;;;;3.63;1.63;;;;;;;17.27;50.11;99956.63;5033429;28;20165;-68
2021/05/10 02:25:55;;;;;;;2.10;1.40;;;;;;;17.16;50.24;99944.19;5033570;28;20196;-68
2021/05/10 02:28:23;;;;;;;1.87;1.57;;;;;;;17.20;49.99;99929.41;5035459;28;20176;-68
2021/05/10 02:30:49;;;;;;;3.90;2.00;;;;;;;17.20;49.83;99940.19;5033211;28;20169;-68
2021/05/10 02:33:17;;;;;;;3.90;1.80;;;;;;;17.24;50.09;99938.06;5032821;28;20238;-68
2021/05/10 02:35:43;;;;;;;2.27;1.50;;;;;;;17.11;50.19;99955.41;5032673;28;20208;-68
2021/05/10 02:38:08;;;;;;;1.97;1.50;;;;;;;17.12;50.19;99932.84;5034156;28;20175;-67
2021/05/10 02:40:34;;;;;;;5.57;2.17;;;;;;;17.02;50.52;99945.44;5035336;28;20260;-67
2021/05/10 02:42:59;;;;;;;2.03;1.60;;;;;;;17.00;50.42;99941.19;5035410;28;20648;-67
2021/05/10 02:45:25;;;;;;;1.80;1.53;;;;;;;16.99;50.45;99937.66;5036664;28;20203;-67
2021/05/10 02:47:50;;;;;;;2.60;1.63;;;;;;;17.04;49.96;99945.31;5035593;28;20180;-67
2021/05/10 02:50:18;;;;;;;1.97;1.50;;;;;;;16.95;50.48;99941.63;5035119;28;20211;-67
2021/05/10 02:52:44;;;;;;;3.23;1.80;;;;;;;16.98;50.68;99937.81;5036388;28;20169;-67
2021/05/10 02:55:10;;;;;;;2.87;1.67;;;;;;;16.92;50.96;99938.38;5035274;28;20195;-67
2021/05/10 02:57:35;;;;;;;3.30;2.00;;;;;;;16.88;50.65;99943.22;5036595;28;20595;-68
2021/05/10 03:00:01;;;;;;;2.27;1.67;;;;;;;16.89;50.40;99947.59;5035563;28;20176;-68
2021/05/10 03:02:26;;;;;;;3.50;1.70;;;;;;;16.80;50.79;99957.41;5035104;28;20680;-68
2021/05/10 03:04:52;;;;;;;6.90;2.00;;;;;;;16.80;50.58;99940.38;5036352;28;20196;-67
2021/05/10 03:07:17;;;;;;;2.77;1.60;;;;;;;16.82;50.64;99941.94;5035216;28;20260;-67
2021/05/10 03:09:42;;;;;;;5.67;1.60;;;;;;;16.74;51.05;99954.44;5035087;28;20180;-68
2021/05/10 03:12:08;;;;;;;3.60;1.70;;;;;;;16.61;51.21;99946.56;5035177;28;20175;-68
2021/05/10 03:14:34;;;;;;;2.63;1.70;;;;;;;16.72;50.52;99938.38;5036059;28;20204;-67
2021/05/10 03:16:59;;;;;;;2.10;1.57;;;;;;;16.79;50.78;99938.69;5036121;28;20223;-67
2021/05/10 03:19:24;;;;;;;3.57;1.90;;;;;;;16.73;50.86;99937.41;5036049;28;20226;-68
2021/05/10 03:21:49;;;;;;;7.90;2.27;;;;;;;16.66;50.82;99936.25;5035956;28;20203;-68
2021/05/10 03:24:15;;;;;;;5.77;1.83;;;;;;;16.58;51.00;99931.53;5035842;28;20204;-68
2021/05/10 03:26:41;;;;;;;3.53;1.90;;;;;;;16.55;50.95;99928.28;5035341;28;20180;-68
2021/05/10 03:29:07;;;;;;;4.77;1.90;;;;;;;16.50;50.93;99923.31;5036006;28;20636;-67
2021/05/10 03:31:33;;;;;;;2.17;1.40;;;;;;;16.50;51.04;99933.25;5035652;28;20204;-67
2021/05/10 03:33:58;;;;;;;7.40;1.50;;;;;;;16.52;51.02;99933.94;5035020;28;20184;-67
2021/05/10 03:36:24;;;;;;;4.23;1.70;;;;;;;16.44;50.92;99944.59;5037077;28;20675;-67
2021/05/10 03:38:49;;;;;;;2.57;1.50;;;;;;;16.47;51.10;99945.16;5036113;28;20172;-67
2021/05/10 03:41:14;;;;;;;2.70;1.60;;;;;;;16.42;51.24;99957.34;5034933;28;20196;-68
2021/05/10 03:43:40;;;;;;;2.37;1.73;;;;;;;16.49;50.74;99982.72;5034432;28;20203;-68
2021/05/10 03:46:05;;;;;;;2.43;1.70;;;;;;;16.42;51.14;99954.66;5034236;28;20560;-67
2021/05/10 03:48:30;;;;;;;3.47;1.93;;;;;;;16.40;50.95;99953.94;5034808;28;20172;-67
2021/05/10 03:50:56;;;;;;;3.50;1.87;;;;;;;16.37;51.23;99956.91;5034315;28;20180;-67
2021/05/10 03:53:21;;;;;;;2.70;1.80;;;;;;;16.36;51.15;99963.28;5035261;28;20172;-67
2021/05/10 03:55:46;;;;;;;3.43;1.50;;;;;;;16.29;51.21;99967.50;5035558;28;20196;-67
2021/05/10 03:58:12;;;;;;;4.70;1.60;;;;;;;16.46;50.97;99950.69;5035056;28;20517;-67
2021/05/10 04:00:37;;;;;;;2.53;1.30;;;;;;;16.42;50.90;99960.03;5033821;28;20172;-68
2021/05/10 04:03:04;;;;;;;3.73;1.70;;;;;;;16.35;51.04;99958.88;5033827;28;20628;-66
2021/05/10 04:10:59;;;;;;;2.30;1.33;;;;;;;16.32;50.54;99957.31;5033920;28;20519;-67
2021/05/10 04:13:35;;;;;;;2.20;1.70;;;;;;;16.37;50.71;99965.00;5034938;28;20168;-67
2021/05/10 04:16:01;;;;;;;3.27;1.67;;;;;;;16.31;50.62;99970.91;5034926;28;20192;-68
2021/05/10 04:18:26;;;;;;;4.73;1.83;;;;;;;16.33;50.78;99964.38;5034946;28;20187;-67
2021/05/10 04:20:52;;;;;;;5.20;1.60;;;;;;;16.25;50.67;99967.78;5033603;28;20235;-67
2021/05/10 04:23:21;;;;;;;4.50;1.50;;;;;;;16.32;51.08;99959.16;5033625;28;20172;-68
2021/05/10 04:25:48;;;;;;;6.63;1.33;;;;;;;16.39;50.67;99966.56;5034736;28;20254;-67
2021/05/10 04:28:14;;;;;;;3.70;1.60;;;;;;;16.34;50.29;99960.69;5033248;28;20196;-68
2021/05/10 04:30:42;;;;;;;6.00;1.50;;;;;;;16.55;50.40;99964.16;5033109;28;20200;-67
2021/05/10 04:33:08;;;;;;;3.40;1.40;;;;;;;16.63;49.71;99965.28;5033166;28;20172;-67
2021/05/10 04:35:33;;;;;;;2.80;1.70;;;;;;;16.71;49.49;99960.06;5016648;28;20207;-68
2021/05/10 04:38:06;;;;;;;3.83;1.50;;;;;;;16.77;49.04;99962.22;5034591;28;20176;-68
2021/05/10 04:40:31;;;;;;;2.03;1.40;;;;;;;16.63;49.06;99963.44;5033136;28;20175;-68
2021/05/10 04:42:57;;;;;;;2.67;1.73;;;;;;;16.76;49.26;99964.06;5033784;28;20180;-68
2021/05/10 04:45:22;;;;;;;2.10;1.10;;;;;;;16.71;49.05;99965.47;5032974;28;20248;-68
2021/05/10 04:47:48;;;;;;;2.43;1.50;;;;;;;16.75;48.50;99966.91;5034551;28;20640;-68
2021/05/10 04:50:14;;;;;;;3.77;1.60;;;;;;;16.86;48.86;99961.38;5033186;28;20187;-68
2021/05/10 04:52:40;;;;;;;3.20;1.40;;;;;;;17.05;48.36;99966.72;5032746;28;20192;-68
2021/05/10 04:55:06;;;;;;;4.63;1.40;;;;;;;17.11;48.07;99965.34;5032718;28;20200;-68
2021/05/10 04:57:32;;;;;;;3.53;1.60;;;;;;;17.21;47.58;99962.63;5032862;28;20172;-68
2021/05/10 04:59:57;;;;;;;4.63;1.50;;;;;;;17.21;47.54;99962.63;5034280;28;20659;-68
2021/05/10 05:02:23;;;;;;;4.83;1.30;;;;;;;17.14;47.68;99965.03;5032346;28;20200;-67
2021/05/10 05:04:48;;;;;;;2.40;1.20;;;;;;;17.30;46.70;99964.44;5032773;28;20254;-67
2021/05/10 05:07:14;;;;;;;2.20;1.50;;;;;;;17.15;47.44;99951.41;5033803;28;20200;-67
2021/05/10 05:09:39;;;;;;;3.03;1.40;;;;;;;17.22;47.89;99954.38;5033565;28;20653;-67
2021/05/10 05:12:05;;;;;;;8.33;1.60;;;;;;;17.28;47.62;99961.88;5033641;28;20207;-67
2021/05/10 05:14:30;;;;;;;2.83;1.47;;;;;;;17.39;47.08;99958.16;5033649;28;20282;-67
2021/05/10 05:16:55;;;;;;;4.63;1.63;;;;;;;17.41;46.72;99948.06;5033652;28;20187;-67
2021/05/10 05:19:21;;;;;;;5.40;1.80;;;;;;;17.56;46.65;99952.03;5034270;28;20219;-68
2021/05/10 05:21:46;;;;;;;5.43;1.50;;;;;;;17.57;46.54;99959.13;5033503;28;20204;-68
2021/05/10 05:24:11;;;;;;;2.40;1.33;;;;;;;17.65;46.04;99958.38;5032015;28;20580;-68
2021/05/10 05:26:36;;;;;;;4.63;1.50;;;;;;;17.57;46.36;99961.81;5033413;28;20172;-67
2021/05/10 05:29:02;;;;;;;2.97;1.30;;;;;;;17.70;46.45;99958.81;5033566;28;20180;-67
2021/05/10 05:31:29;;;;;;;4.30;2.30;;;;;;;17.78;46.38;99969.72;5032935;28;20533;-67
2021/05/10 05:33:54;;;;;;;6.47;1.60;;;;;;;17.83;46.00;99972.81;5032445;28;20183;-67
2021/05/10 05:36:20;;;;;;;2.50;1.47;;;;;;;17.89;45.65;99977.66;5032026;28;20212;-67
2021/05/10 05:38:45;;;;;;;5.20;1.70;;;;;;;17.74;45.91;99979.09;5033601;28;20176;-67
2021/05/10 05:41:12;;;;;;;4.73;1.50;;;;;;;17.87;46.54;99981.50;5033129;28;20211;-67
2021/05/10 05:43:37;;;;;;;2.27;1.60;;;;;;;17.96;46.35;99975.19;5033324;28;20647;-67
2021/05/10 05:46:04;;;;;;;3.47;1.37;;;;;;;17.93;45.35;99976.34;5031924;28;20200;-67
2021/05/10 05:48:29;;;;;;;2.50;1.33;;;;;;;17.89;46.28;99982.19;5032068;28;20255;-67
2021/05/10 05:50:54;;;;;;;3.43;1.47;;;;;;;18.05;45.47;99975.16;5033639;28;20172;-66
2021/05/10 05:53:20;;;;;;;3.47;1.40;;;;;;;18.02;45.08;99980.84;5033108;28;20595;-67
2021/05/10 05:55:45;;;;;;;6.83;1.80;;;;;;;17.95;46.02;99982.44;5033198;28;20552;-67
2021/05/10 05:58:12;;;;;;;2.87;1.20;;;;;;;17.93;46.23;99980.91;5033041;28;20176;-67
2021/05/10 06:00:37;;;;;;;1.90;1.30;;;;;;;18.02;45.97;99972.75;5032888;28;20282;-68
2021/05/10 06:03:02;;;;;;;4.60;1.43;;;;;;;18.02;45.90;99970.03;5033180;28;20180;-67
2021/05/10 06:05:28;;;;;;;8.27;1.77;;;;;;;17.92;46.78;99971.09;5031996;28;20200;-68
2021/05/10 06:07:53;;;;;;;3.70;1.40;;;;;;;18.05;46.10;99971.59;5031727;28;20180;-68
2021/05/10 06:10:23;;;;;;;7.63;1.53;;;;;;;18.23;45.93;99969.81;5032947;28;20212;-67
2021/05/10 06:12:50;;;;;;;3.30;1.40;;;;;;;18.23;45.39;99977.91;5033845;28;20161;-67
2021/05/10 06:15:17;;;;;;;3.93;1.50;;;;;;;18.34;45.30;99983.09;5037000;28;20679;-68
2021/05/10 06:17:42;;;;;;;5.13;1.70;;;;;;;18.57;45.16;99988.06;5037186;28;20229;-67
2021/05/10 06:20:09;;;;;;;4.10;1.50;;;;;;;18.48;45.35;99991.69;5037262;28;20172;-67
2021/05/10 06:22:38;;;;;;;2.50;1.30;;;;;;;18.68;44.38;99994.16;5036939;28;20195;-69
2021/05/10 06:25:05;;;;;;;2.43;1.50;;;;;;;18.76;44.36;99987.97;5036693;28;20737;-67
2021/05/10 06:27:31;;;;;;;3.33;1.77;;;;;;;18.58;44.61;99995.16;5036849;28;20218;-67
2021/05/10 06:29:56;;;;;;;5.33;1.50;;;;;;;18.60;44.82;100010.25;5037846;28;20173;-68
2021/05/10 06:32:21;;;;;;;3.43;1.43;;;;;;;18.42;45.46;99999.38;5038821;28;20172;-68
2021/05/10 06:34:47;;;;;;;3.60;1.37;;;;;;;18.34;45.53;100007.41;5036881;28;20208;-67
2021/05/10 06:37:18;;;;;;;2.90;1.70;;;;;;;18.25;45.67;100013.72;5036942;28;20176;-67
2021/05/10 06:39:43;;;;;;;3.87;1.50;;;;;;;18.35;46.29;100017.22;5037014;28;20236;-68
2021/05/10 06:42:09;;;;;;;2.07;1.10;;;;;;;18.44;45.54;100020.84;5018835;28;20315;-67
2021/05/10 06:44:34;;;;;;;3.40;1.33;;;;;;;18.24;46.42;100022.81;5036307;28;20188;-67
2021/05/10 06:47:00;;;;;;;1.77;1.20;;;;;;;18.32;46.13;100025.63;5035695;28;20168;-67
2021/05/10 06:49:25;;;;;;;2.90;1.27;;;;;;;18.39;46.12;100032.13;5035760;28;20583;-68
2021/05/10 06:51:50;;;;;;;1.97;1.60;;;;;;;18.59;46.22;100023.91;5035266;28;20637;-68
2021/05/10 06:54:16;;;;;;;5.37;1.40;;;;;;;18.54;45.97;100023.50;5036547;28;20176;-68
2021/05/10 06:56:41;;;;;;;3.50;1.50;;;;;;;18.60;46.04;100033.72;5036405;28;20176;-68
2021/05/10 06:59:06;;;;;;;1.50;1.20;;;;;;;18.86;44.91;100036.53;5035082;28;20177;-68
2021/05/10 07:01:32;;;;;;;2.70;1.43;;;;;;;18.77;44.88;100023.94;5035198;28;20239;-68
2021/05/10 07:03:57;;;;;;;5.97;1.50;;;;;;;19.04;44.96;100023.91;5036136;28;20548;-69
2021/05/10 07:06:23;;;;;;;2.83;1.50;;;;;;;19.09;44.64;100012.59;5036134;28;20196;-69
2021/05/10 07:08:48;;;;;;;2.43;1.53;;;;;;;19.01;44.81;100005.28;5036139;28;20294;-67
2021/05/10 07:11:13;;;;;;;3.53;1.40;;;;;;;19.16;44.13;100016.38;5037320;28;20169;-68
2021/05/10 07:13:38;;;;;;;4.90;1.70;;;;;;;19.37;44.20;100025.03;5018329;28;20187;-68
2021/05/10 07:16:04;;;;;;;4.57;1.57;;;;;;;19.41;44.27;100020.16;5035540;28;20192;-68
2021/05/10 07:18:29;;;;;;;4.80;1.30;;;;;;;19.32;44.00;100021.91;5036124;28;20640;-68
2021/05/10 07:20:54;;;;;;;2.30;1.20;;;;;;;19.41;44.74;100014.75;5036151;28;20180;-69
2021/05/10 07:23:20;;;;;;;5.23;1.37;;;;;;;19.43;44.32;100018.97;5036186;28;20210;-67
2021/05/10 07:25:48;;;;;;;1.83;1.47;;;;;;;19.68;43.77;100010.03;5034456;28;20690;-67
2021/05/10 07:28:15;;;;;;;1.80;1.20;;;;;;;19.83;44.56;100009.47;5034579;28;20656;-68
2021/05/10 07:30:41;;;;;;;6.03;1.27;;;;;;;19.95;45.24;100008.19;5036216;28;20587;-67
2021/05/10 07:33:07;;;;;;;2.33;1.60;;;;;;;20.21;43.54;100009.00;5036125;28;20176;-68
2021/05/10 07:35:32;;;;;;;3.70;1.40;;;;;;;20.24;43.02;100007.81;5035865;28;20215;-67
2021/05/10 07:37:59;;;;;;;4.57;1.50;;;;;;;20.38;43.36;100015.31;5036157;28;20168;-68
2021/05/10 07:40:24;;;;;;;4.73;1.20;;;;;;;20.54;42.66;100015.41;5034995;28;20547;-69
2021/05/10 07:42:50;;;;;;;2.40;1.27;;;;;;;20.57;42.56;100003.41;5035792;28;20196;-69
2021/05/10 07:45:16;;;;;;;2.20;1.60;;;;;;;20.62;41.85;100011.88;5035891;28;20196;-68
2021/05/10 07:47:43;;;;;;;2.67;1.60;;;;;;;20.56;42.29;100007.13;5036115;28;20543;-69
2021/05/10 07:50:08;;;;;;;3.20;1.90;;;;;;;20.76;41.82;100003.09;5036078;28;20675;-69
2021/05/10 07:52:33;;;;;;;6.87;1.67;;;;;;;20.72;41.89;100012.56;5034601;28;20200;-68
2021/05/10 07:54:59;;;;;;;2.23;1.50;;;;;;;20.91;42.09;100012.28;5035764;28;20200;-67
2021/05/10 07:57:25;;;;;;;5.13;1.37;;;;;;;20.59;41.84;100010.34;5035617;28;20179;-68
2021/05/10 07:59:51;;;;;;;3.43;1.70;;;;;;;20.88;42.05;100001.78;5017983;28;20245;-68
2021/05/10 08:02:19;;;;;;;1.63;1.17;;;;;;;20.92;41.98;99995.00;5033965;28;20196;-68
2021/05/10 08:04:44;;;;;;;3.60;1.50;;;;;;;21.13;41.99;99997.19;5035075;28;20195;-66
2021/05/10 08:07:09;;;;;;;5.43;1.70;;;;;;;21.30;41.27;100005.38;5033863;28;20183;-67
2021/05/10 08:09:35;;;;;;;4.87;1.50;;;;;;;21.43;41.87;99995.69;5035129;28;20180;-68
2021/05/10 08:12:00;;;;;;;7.63;1.57;;;;;;;21.54;41.16;100005.34;5035195;28;20767;-67
2021/05/10 08:14:26;;;;;;;3.77;1.50;;;;;;;21.58;41.15;99995.88;5034152;28;20207;-68
2021/05/10 08:16:52;;;;;;;5.53;1.50;;;;;;;21.57;41.75;99996.03;5033942;28;20172;-68
2021/05/10 08:19:17;;;;;;;5.53;1.40;;;;;;;21.73;41.14;99988.69;5034202;28;20636;-68
2021/05/10 08:21:42;;;;;;;4.37;1.30;;;;;;;21.72;40.68;99983.44;5034785;28;20215;-68
2021/05/10 08:24:08;;;;;;;3.03;1.50;;;;;;;21.62;41.00;99980.91;5036117;28;20208;-67
2021/05/10 08:26:34;;;;;;;5.53;1.50;;;;;;;21.74;40.35;99982.25;5035660;28;20184;-67
2021/05/10 08:28:59;;;;;;;10.87;1.80;;;;;;;21.70;41.02;99980.06;5035775;28;20168;-67
2021/05/10 08:31:25;;;;;;;1.53;1.20;;;;;;;21.91;40.07;99979.47;5035192;28;20173;-68
2021/05/10 08:33:50;;;;;;;2.93;1.27;;;;;;;21.99;40.68;99976.75;5034691;28;20182;-68
2021/05/10 08:36:17;;;;;;;4.90;1.50;;;;;;;22.09;40.55;99970.13;5033321;28;20705;-68
2021/05/10 08:38:43;;;;;;;2.83;1.40;;;;;;;22.18;40.06;99967.34;5033258;28;20184;-68
2021/05/10 08:41:08;;;;;;;7.50;1.53;;;;;;;22.07;41.00;99964.00;5033532;28;20200;-68
2021/05/10 08:43:33;;;;;;;2.50;1.33;;;;;;;22.31;39.84;99964.94;5032855;28;20180;-68
2021/05/10 08:46:00;;;;;;;2.33;1.50;;;;;;;22.37;39.65;99972.38;5034526;28;20668;-68
2021/05/10 08:48:26;;;;;;;3.07;1.33;;;;;;;22.59;39.63;99971.53;5034363;28;20176;-68
2021/05/10 08:50:52;;;;;;;3.50;1.30;;;;;;;22.60;38.99;99973.25;5034562;28;20559;-67
2021/05/10 08:53:39;;;;;;;2.30;1.40;;;;;;;22.68;38.84;99964.22;5034307;28;20259;-67
2021/05/10 08:56:11;;;;;;;4.37;1.53;;;;;;;22.86;39.50;99974.81;5034487;28;20668;-68
2021/05/10 08:58:38;;;;;;;4.17;1.50;;;;;;;23.07;38.86;99964.97;5016772;28;20215;-68
2021/05/10 09:01:04;;;;;;;4.43;1.50;;;;;;;23.10;40.01;99957.47;5032697;28;20203;-67
2021/05/10 09:03:42;;;;;;;2.13;1.20;;;;;;;23.28;39.11;99961.53;5033858;28;20180;-67
2021/05/10 09:06:12;;;;;;;1.63;1.30;;;;;;;23.09;39.44;99962.06;5033102;28;20199;-67
2021/05/10 09:08:45;;;;;;;2.63;1.23;;;;;;;23.08;40.28;99968.53;5017182;28;20161;-67
2021/05/10 09:11:16;;;;;;;1.97;1.27;;;;;;;23.34;39.25;99966.25;5033761;28;20168;-67
2021/05/10 09:13:43;;;;;;;6.33;1.40;;;;;;;23.58;38.00;99967.94;5032610;28;20165;-67
2021/05/10 09:16:10;;;;;;;1.80;1.20;;;;;;;23.67;37.92;99971.41;5033645;28;20736;-68
2021/05/10 09:18:35;;;;;;;3.63;1.50;;;;;;;23.80;38.29;99970.78;5032195;28;20205;-68
2021/05/10 09:21:18;;;;;;;3.50;1.40;;;;;;;23.89;37.43;99965.03;5032159;28;20171;-68
2021/05/10 09:23:44;;;;;;;2.03;1.33;;;;;;;23.83;36.97;99965.78;5033673;28;20658;-68
2021/05/10 09:26:11;;;;;;;3.33;1.30;;;;;;;24.07;35.30;99958.34;5034202;28;20192;-68
2021/05/10 09:28:42;;;;;;;3.00;1.10;;;;;;;23.65;34.97;99955.25;5033526;28;20172;-68
2021/05/10 09:31:09;;;;;;;2.13;1.30;;;;;;;23.42;36.23;99978.97;5033659;28;20659;-69
2021/05/10 09:33:40;;;;;;;3.10;1.50;;;;;;;23.77;36.35;99965.69;5032473;28;20552;-69
2021/05/10 09:36:07;;;;;;;2.00;1.40;;;;;;;23.72;36.75;99957.22;5034781;23;20229;-70
2021/05/10 09:38:36;;;;;;;6.17;1.60;;;;;;;23.30;37.07;99962.19;5012670;28;20173;-71
2021/05/10 09:41:06;;;;;;;2.80;1.33;;;;;;;23.90;36.60;99961.28;5013788;28;20169;-71
2021/05/10 09:43:35;;;;;;;2.23;1.70;;;;;;;23.95;36.73;99958.00;5012602;28;20596;-72
2021/05/10 09:46:18;;;;;;;2.97;1.60;;;;;;;23.68;37.06;99949.41;5012649;28;20633;-70
2021/05/10 09:48:45;;;;;;;2.13;1.50;;;;;;;24.21;36.50;99946.59;5013170;28;20168;-71
2021/05/10 09:51:12;;;;;;;2.67;1.37;;;;;;;24.57;36.21;99963.00;5013894;28;20678;-71
2021/05/10 09:53:56;;;;;;;5.00;1.33;;;;;;;24.34;36.19;99954.97;5013626;28;20625;-71
2021/05/10 09:59:10;;;;;;;2.30;1.40;;;;;;;24.83;35.47;99951.50;5014158;28;20176;-71
2021/05/10 10:01:40;;;;;;;4.80;1.30;;;;;;;24.84;34.90;99945.00;5012562;28;20550;-70
2021/05/10 10:04:05;;;;;;;3.83;1.23;;;;;;;24.65;35.33;99948.41;5012097;28;20177;-72
2021/05/10 10:06:31;;;;;;;2.30;1.27;;;;;;;24.76;35.47;99940.53;5013376;28;20683;-71
2021/05/10 10:08:56;;;;;;;2.73;1.70;;;;;;;25.28;34.61;99944.84;5029442;28;20522;-71
2021/05/10 10:11:24;;;;;;;5.10;1.60;;;;;;;25.47;34.23;99933.22;5013416;28;20188;-71
2021/05/10 10:13:51;;;;;;;4.63;1.20;;;;;;;25.75;34.08;99941.44;5014046;28;20657;-72
2021/05/10 10:16:19;;;;;;;5.70;1.77;;;;;;;26.24;33.41;99945.88;5012482;28;20200;-72
2021/05/10 10:18:44;;;;;;;2.43;1.40;;;;;;;26.28;33.65;99940.84;5011989;28;20181;-71
2021/05/10 10:21:13;;;;;;;5.80;1.37;;;;;;;26.24;33.36;99932.19;5013589;28;20564;-71
2021/05/10 10:23:38;;;;;;;3.43;1.20;;;;;;;26.33;33.04;99939.22;5013267;28;20181;-70
2021/05/10 10:26:06;;;;;;;3.13;1.40;;;;;;;25.03;34.64;99929.91;5011979;28;20661;-72
2021/05/10 10:28:33;;;;;;;1.87;1.20;;;;;;;26.26;34.07;99935.56;5011989;28;20288;-71
2021/05/10 10:31:13;;;;;;;4.33;1.40;;;;;;;25.86;33.27;99910.78;5012166;28;20177;-72
2021/05/10 10:33:50;;;;;;;2.27;1.30;;;;;;;26.22;32.49;99925.25;5028529;28;20165;-70
2021/05/10 10:36:20;;;;;;;2.40;1.30;;;;;;;26.79;32.24;99927.56;5028349;28;20266;-71
2021/05/10 10:38:45;;;;;;;3.10;1.47;;;;;;;26.95;31.60;99926.31;5013034;28;20173;-72
2021/05/10 10:41:28;;;;;;;3.90;1.50;;;;;;;26.36;31.69;99940.69;5012895;28;20204;-72
2021/05/10 10:44:46;;;;;;;1.93;1.23;;;;;;;26.58;31.93;99936.78;5028540;28;20232;-72
2021/05/10 10:47:17;;;;;;;3.57;1.40;;;;;;;26.08;33.04;99938.88;4981266;28;20664;-72
2021/05/10 10:49:44;;;;;;;1.60;1.17;;;;;;;26.56;31.57;99929.81;5020392;28;20180;-71
2021/05/10 10:52:20;;;;;;;5.73;1.23;;;;;;;26.18;31.47;99935.75;5039276;28;20660;-72
2021/05/10 10:54:47;;;;;;;2.77;1.47;;;;;;;27.30;30.14;99937.94;5045766;28;20219;-71
2021/05/10 10:57:32;;;;;;;5.50;1.40;;;;;;;27.48;30.08;99935.41;5033126;28;20549;-71
2021/05/10 10:59:57;;;;;;;1.27;1.10;;;;;;;29.11;28.43;99931.41;5015235;28;20180;-71
2021/05/10 11:02:26;;;;;;;2.07;1.53;;;;;;;30.56;27.42;99928.22;5016731;28;20561;-72
2021/05/10 11:05:12;;;;;;;2.70;1.43;;;;;;;31.60;25.84;99937.84;5031766;28;20220;-72
2021/05/10 11:08:09;;;;;;;2.97;1.30;;;;;;;32.61;22.90;99930.94;5032303;28;20180;-72
2021/05/10 11:10:51;;;;;;;2.75;1.23;;;;;;;32.98;22.28;99919.47;5016854;28;20169;-71
2021/05/10 11:13:25;;;;;;;3.90;1.45;;;;;;;32.21;23.16;99928.16;5016689;28;20177;-71
2021/05/10 11:15:51;;;;;;;10.68;1.58;;;;;;;31.09;24.45;99926.34;5016346;28;20193;-71
2021/05/10 11:18:40;;;;;;;5.32;1.45;;;;;;;32.41;22.43;99911.22;5031767;28;20204;-72
2021/05/10 11:21:08;;;;;;;3.38;1.67;;;;;;;32.02;24.24;99920.06;5031390;28;20169;-72
2021/05/10 11:23:38;;;;;;;3.53;1.27;;;;;;;33.19;22.35;99918.75;5031589;28;20691;-73
2021/05/10 11:26:07;;;;;;;8.80;1.45;;;;;;;31.70;23.18;99922.38;5031485;28;20727;-72
2021/05/10 11:28:32;;;;;;;2.08;1.00;;;;;;;34.09;21.30;99910.19;5031365;28;20173;-72
2021/05/10 11:30:59;;;;;;;3.05;1.20;;;;;;;33.68;21.38;99906.00;5016120;28;20256;-70
2021/05/10 11:33:53;;;;;;;2.53;1.08;;;;;;;30.44;24.94;99906.94;5031601;28;20185;-72
2021/05/10 11:36:26;;;;;;;1.55;1.17;;;;;;;31.64;23.98;99916.97;5015881;28;20254;-71
2021/05/10 11:39:03;;;;;;;3.88;1.50;;;;;;;33.31;21.70;99913.16;5014632;28;20633;-71
2021/05/10 11:41:32;;;;;;;6.18;1.20;;;;;;;34.36;21.10;99928.81;5031485;28;20617;-71